Terminal Aerodrome Forecast
Issued by NWS

Home | Current Version | Previous Version | Graphics & Text | Print | Product List | Glossary On
Versions: 1 2 3 4 5 6 7 8 9 10 11 12 13 14 15 16 17 18 19
000
FTUS43 KTOP 190300 AAA
TAFMHK
TAF AMD
KMHK 190338Z 1904/1924 06003KT 6SM BR OVC011
     FM190800 00000KT 2SM BR OVC008
     FM191600 19004KT 6SM BR OVC015=

USA.gov is the U.S. government's official web portal to all federal, state and local government web resources and services.